Terminal Aerodrome Forecast
Issued by NWS Sioux Falls, SD

Home | Current Version | Previous Version | Graphics & Text | Print | Product List | Glossary On
Versions: 1 2 3 4 5 6 7 8 9 10 11 12 13 14 15 16
000
FTUS43 KFSD 241730
TAFHON
TAF
KHON 241730Z 2418/2518 34016G24KT P6SM SCT030 BKN060
     FM242200 35011KT P6SM SCT030 BKN070
     FM250300 11009KT 3SM -SN OVC025
     FM250600 10012KT 1SM -SN OVC015
     FM251200 07012KT 1SM -SN OVC020
     FM251400 04015KT 3SM -SN OVC025=

USA.gov is the U.S. government's official web portal to all federal, state and local government web resources and services.